Time;durP1;ratioP1;P1;durP2;ratioP2;P2;SDS_P1;SDS_P2;PMS_P1;PMS_P2;Temp;Humidity;BMP_temperature;BMP_pressure;BME280_temperature;BME280_humidity;BME280_pressure;Samples;Min_cycle;Max_cycle;Signal;HPM_P1;HPM_P2
2021/04/18 00:01:10;;;;;;;17.20;6.53;;;;;;;7.55;58.66;101875.44;5091701;28;20467;-69
2021/04/18 00:03:37;;;;;;;18.83;6.97;;;;;;;7.43;59.16;101872.06;5092381;28;20055;-70
2021/04/18 00:06:23;;;;;;;13.32;6.78;;;;;;;7.73;58.25;101865.94;5092029;28;20048;-69
2021/04/18 00:08:50;;;;;;;14.43;6.40;;;;;;;7.73;58.10;101874.16;5091933;28;20055;-68
2021/04/18 00:11:19;;;;;;;16.88;6.53;;;;;;;7.29;59.35;101873.63;5091944;28;20388;-66
2021/04/18 00:13:46;;;;;;;14.90;5.95;;;;;;;7.71;58.70;101871.69;5091059;28;20048;-65
2021/04/18 00:16:17;;;;;;;17.33;7.03;;;;;;;7.63;58.29;101868.63;5092743;28;20055;-67
2021/04/18 00:18:44;;;;;;;18.50;7.00;;;;;;;7.26;59.18;101874.16;5092099;28;20044;-63
2021/04/18 00:21:12;;;;;;;15.32;6.47;;;;;;;7.06;60.40;101881.41;5091009;28;20403;-68
2021/04/18 00:23:39;;;;;;;15.77;6.53;;;;;;;7.28;59.65;101879.38;5091577;28;20059;-65
2021/04/18 00:26:06;;;;;;;22.40;7.38;;;;;;;7.32;59.44;101867.59;5091093;28;20052;-65
2021/04/18 00:28:34;;;;;;;18.15;6.72;;;;;;;7.23;59.74;101876.59;5091311;28;20056;-66
2021/04/18 00:31:03;;;;;;;16.30;6.38;;;;;;;7.20;59.97;101872.44;5091361;28;20421;-72
2021/04/18 00:33:30;;;;;;;12.88;6.00;;;;;;;7.57;58.86;101861.44;5086645;28;20143;-67
2021/04/18 00:35:57;;;;;;;12.82;6.40;;;;;;;7.48;59.39;101865.81;5088870;28;20059;-66
2021/04/18 00:38:27;;;;;;;13.63;6.45;;;;;;;7.40;59.08;101855.31;5090763;28;20051;-68
2021/04/18 00:41:13;;;;;;;13.45;6.13;;;;;;;7.27;59.77;101862.09;5090048;28;20436;-70
2021/04/18 00:43:42;;;;;;;13.48;6.10;;;;;;;7.22;60.03;101851.09;5091806;28;20048;-65
2021/04/18 00:46:12;;;;;;;18.67;6.63;;;;;;;7.21;59.77;101851.38;5091486;28;20044;-65
2021/04/18 00:48:44;;;;;;;15.70;6.90;;;;;;;7.27;59.81;101858.53;5087999;28;20052;-69
2021/04/18 00:51:30;;;;;;;15.77;6.47;;;;;;;7.13;60.10;101849.94;5090623;28;20059;-71
2021/04/18 00:53:57;;;;;;;15.93;6.20;;;;;;;7.06;60.40;101840.31;5090653;28;20059;-64
2021/04/18 00:56:30;;;;;;;15.82;7.15;;;;;;;7.08;60.70;101846.34;5090143;28;20060;-67
2021/04/18 00:58:57;;;;;;;12.73;5.95;;;;;;;7.04;60.63;101846.06;5093004;28;20407;-66
2021/04/18 01:01:24;;;;;;;17.23;6.63;;;;;;;6.94;60.77;101842.41;5072350;28;20060;-66
2021/04/18 01:03:52;;;;;;;17.00;6.47;;;;;;;6.75;61.73;101844.69;5091250;28;20051;-68
2021/04/18 01:06:26;;;;;;;15.52;6.80;;;;;;;6.69;61.67;101835.59;5090065;28;20048;-66
2021/04/18 01:08:54;;;;;;;13.30;6.20;;;;;;;6.44;62.43;101840.88;5090779;28;20515;-66
2021/04/18 01:11:43;;;;;;;18.00;6.18;;;;;;;6.11;63.64;101841.06;5090472;28;20051;-66
2021/04/18 01:14:09;;;;;;;17.15;6.65;;;;;;;6.00;64.28;101833.00;5092202;28;20059;-65
2021/04/18 01:16:36;;;;;;;18.75;6.13;;;;;;;6.18;63.99;101836.22;5091087;28;20158;-66
2021/04/18 01:19:04;;;;;;;17.85;6.65;;;;;;;6.09;64.36;101837.75;5090971;28;20052;-66
2021/04/18 01:21:31;;;;;;;16.35;6.03;;;;;;;6.21;63.77;101832.97;5090899;28;20083;-66
2021/04/18 01:24:28;;;;;;;13.52;6.28;;;;;;;6.10;64.41;101833.13;5086160;28;20056;-65
2021/04/18 01:27:38;;;;;;;15.30;6.32;;;;;;;6.37;64.70;101829.31;5073935;28;20138;-64
2021/04/18 01:30:12;;;;;;;13.85;5.60;;;;;;;6.13;63.94;101825.22;5074902;28;20059;-65
2021/04/18 01:32:44;;;;;;;18.20;6.63;;;;;;;5.96;64.89;101829.13;5074510;28;20044;-66
2021/04/18 01:35:12;;;;;;;17.02;6.15;;;;;;;6.03;64.52;101824.28;5074599;28;20048;-64
2021/04/18 01:37:49;;;;;;;23.33;6.85;;;;;;;5.81;65.39;101835.19;5073075;28;20103;-66
2021/04/18 01:40:18;;;;;;;15.35;6.32;;;;;;;5.69;65.78;101837.22;5075509;28;20056;-62
2021/04/18 01:42:47;;;;;;;15.13;6.10;;;;;;;5.74;65.66;101829.91;5073977;28;20399;-65
2021/04/18 01:45:16;;;;;;;14.48;5.93;;;;;;;5.94;65.66;101828.53;5073935;28;20049;-69
2021/04/18 01:47:44;;;;;;;11.82;5.82;;;;;;;6.13;64.31;101814.28;5075434;28;20433;-67
2021/04/18 01:50:14;;;;;;;14.85;5.60;;;;;;;5.90;64.85;101825.50;5081945;28;20070;-68
2021/04/18 01:52:41;;;;;;;17.73;6.15;;;;;;;5.70;65.53;101825.22;5092799;28;20492;-68
2021/04/18 01:55:16;;;;;;;14.60;5.88;;;;;;;5.96;65.87;101820.91;5094015;28;20059;-65
2021/04/18 01:57:48;;;;;;;14.52;6.22;;;;;;;6.03;64.83;101819.66;5093685;28;20071;-68
2021/04/18 02:00:51;;;;;;;16.70;6.28;;;;;;;5.76;65.67;101826.94;5029640;28;20161;-65
2021/04/18 02:03:19;;;;;;;14.05;6.10;;;;;;;5.93;64.92;101815.97;5016011;28;20073;-64
2021/04/18 02:05:48;;;;;;;17.10;6.55;;;;;;;5.74;65.28;101813.53;5015369;28;20042;-67
2021/04/18 02:08:19;;;;;;;18.92;6.68;;;;;;;5.77;64.79;101817.63;5014796;28;20060;-65
2021/04/18 02:11:04;;;;;;;16.08;6.35;;;;;;;5.72;65.48;101812.09;5032258;28;20041;-66
2021/04/18 02:13:38;;;;;;;15.40;6.00;;;;;;;5.63;65.59;101810.94;5015389;28;20057;-67
2021/04/18 02:16:36;;;;;;;19.48;6.80;;;;;;;5.69;65.81;101805.25;4993301;28;20061;-67
2021/04/18 02:19:12;;;;;;;14.93;6.38;;;;;;;5.62;65.21;101807.34;4995188;28;20050;-70
2021/04/18 02:21:46;;;;;;;18.77;6.13;;;;;;;5.58;66.00;101805.38;5011364;28;20444;-71
2021/04/18 02:24:15;;;;;;;18.30;6.80;;;;;;;5.66;65.97;101804.94;4995705;28;20046;-67
2021/04/18 02:26:43;;;;;;;18.73;6.50;;;;;;;5.92;64.93;101806.94;4995765;28;20394;-70
2021/04/18 02:29:35;;;;;;;14.65;6.60;;;;;;;6.04;65.07;101802.13;5013528;28;20061;-70
2021/04/18 02:32:08;;;;;;;15.65;6.10;;;;;;;6.15;63.90;101795.69;5012816;28;20046;-70
2021/04/18 02:34:42;;;;;;;20.02;6.65;;;;;;;6.32;63.38;101796.41;5004190;28;20156;-70
2021/04/18 02:37:09;;;;;;;13.65;5.63;;;;;;;6.00;64.55;101795.53;5031020;28;20505;-71
2021/04/18 02:39:36;;;;;;;17.43;6.93;;;;;;;5.99;64.99;101793.88;5030406;28;20171;-67
2021/04/18 02:42:04;;;;;;;20.35;6.30;;;;;;;6.15;64.18;101803.06;5031980;28;20481;-69
2021/04/18 02:44:31;;;;;;;16.83;6.45;;;;;;;6.00;64.71;101800.19;5014976;28;20048;-73
2021/04/18 02:46:58;;;;;;;15.95;6.55;;;;;;;5.97;64.77;101797.94;5015197;28;20119;-66
2021/04/18 02:49:26;;;;;;;15.65;6.28;;;;;;;5.81;65.64;101799.66;5030961;28;20054;-67
2021/04/18 02:51:55;;;;;;;16.48;6.22;;;;;;;5.67;65.83;101801.94;5031007;28;20057;-69
2021/04/18 02:54:22;;;;;;;18.08;6.40;;;;;;;5.82;65.67;101805.94;5073105;28;20049;-69
2021/04/18 02:56:54;;;;;;;16.20;6.25;;;;;;;5.72;65.85;101807.47;5071985;28;20065;-68
2021/04/18 02:59:21;;;;;;;17.65;6.30;;;;;;;5.64;65.99;101807.94;5109986;28;20054;-72
2021/04/18 03:01:48;;;;;;;18.80;6.45;;;;;;;5.82;65.58;101803.22;5112886;28;20066;-67
2021/04/18 03:04:16;;;;;;;18.27;6.15;;;;;;;5.55;66.49;101806.72;5111705;28;20044;-66
2021/04/18 03:06:52;;;;;;;15.65;7.20;;;;;;;5.59;66.54;101801.56;5091948;28;20043;-69
2021/04/18 03:09:20;;;;;;;16.27;6.07;;;;;;;5.83;65.21;101800.25;5090135;28;20066;-69
2021/04/18 03:11:51;;;;;;;18.08;6.30;;;;;;;5.55;66.15;101803.16;5091004;28;20048;-66
2021/04/18 03:14:32;;;;;;;13.13;5.43;;;;;;;5.65;65.96;101804.09;5090624;28;20055;-70
2021/04/18 03:16:59;;;;;;;14.20;6.20;;;;;;;5.74;65.75;101797.13;5074349;28;20052;-68
2021/04/18 03:19:37;;;;;;;13.02;5.55;;;;;;;5.70;65.93;101808.84;5091989;28;20043;-68
2021/04/18 03:22:06;;;;;;;17.77;5.93;;;;;;;5.64;66.14;101802.47;5091216;28;20056;-65
2021/04/18 03:24:32;;;;;;;14.55;6.10;;;;;;;5.57;66.31;101801.00;5091587;28;20044;-64
2021/04/18 03:26:59;;;;;;;19.48;5.90;;;;;;;5.63;66.32;101802.72;5092877;28;20056;-69
2021/04/18 03:29:27;;;;;;;13.25;6.07;;;;;;;5.75;65.69;101797.94;5091323;28;20055;-71
2021/04/18 03:31:54;;;;;;;21.60;6.15;;;;;;;5.80;65.62;101798.00;5090607;28;20126;-68
2021/04/18 03:34:22;;;;;;;16.80;5.72;;;;;;;5.54;65.97;101804.25;5092577;28;20056;-66
2021/04/18 03:36:51;;;;;;;17.95;6.43;;;;;;;5.32;67.22;101798.75;5090642;28;20051;-68
2021/04/18 03:39:20;;;;;;;17.30;6.25;;;;;;;5.40;66.79;101789.31;5091487;28;20404;-71
2021/04/18 03:41:50;;;;;;;16.15;5.63;;;;;;;5.29;67.13;101792.97;5091137;28;20395;-65
2021/04/18 03:44:17;;;;;;;13.10;5.95;;;;;;;5.36;67.12;101794.44;5090468;28;20043;-67
2021/04/18 03:46:46;;;;;;;17.95;6.78;;;;;;;5.26;67.35;101790.75;5090461;28;20131;-67
2021/04/18 03:49:19;;;;;;;15.70;6.15;;;;;;;5.43;67.11;101789.63;5090049;28;20048;-66
2021/04/18 03:51:58;;;;;;;16.50;6.38;;;;;;;5.53;66.46;101792.47;5087769;28;20059;-64
2021/04/18 03:54:25;;;;;;;15.82;6.10;;;;;;;5.56;66.17;101793.88;5090049;28;20048;-65
2021/04/18 03:56:53;;;;;;;15.35;5.63;;;;;;;5.47;66.71;101798.94;5068299;28;20506;-67
2021/04/18 03:59:24;;;;;;;16.30;6.13;;;;;;;5.09;67.72;101793.50;5109463;28;20055;-67
2021/04/18 04:01:55;;;;;;;13.45;5.53;;;;;;;4.87;68.73;101798.09;5071868;28;20048;-64
2021/04/18 04:04:23;;;;;;;16.00;6.13;;;;;;;4.80;69.16;101802.88;5071727;28;20532;-66
2021/04/18 04:06:52;;;;;;;17.33;6.53;;;;;;;4.77;69.46;101795.22;5086497;28;20055;-67
2021/04/18 04:09:20;;;;;;;15.63;6.10;;;;;;;5.00;68.85;101788.72;5070057;28;20055;-63
2021/04/18 04:11:52;;;;;;;17.77;6.50;;;;;;;5.00;68.64;101795.03;5104113;28;20048;-65
2021/04/18 04:14:25;;;;;;;16.75;6.07;;;;;;;5.01;68.63;101790.38;5070453;28;20068;-64
2021/04/18 04:16:58;;;;;;;17.67;6.25;;;;;;;5.22;68.24;101786.84;5068761;28;20050;-64
2021/04/18 04:19:39;;;;;;;;;;;;;;;5.48;66.71;101786.13;5071311;28;20052;-64
2021/04/18 04:22:25;;;;;;;11.73;5.60;;;;;;;5.14;68.16;101782.69;5067672;28;19931;-68
2021/04/18 04:25:13;;;;;;;18.73;7.20;;;;;;;4.97;68.96;101791.97;5069710;28;20056;-64
2021/04/18 04:27:40;;;;;;;16.85;6.50;;;;;;;4.80;69.54;101794.69;5071829;28;20049;-64
2021/04/18 04:30:08;;;;;;;18.08;6.93;;;;;;;5.13;68.65;101785.63;5091923;28;20407;-65
2021/04/18 04:32:35;;;;;;;15.98;6.22;;;;;;;5.06;68.44;101788.56;5091987;28;20051;-70
2021/04/18 04:35:08;;;;;;;18.50;6.32;;;;;;;4.91;69.16;101782.88;5093088;28;20052;-68
2021/04/18 04:37:35;;;;;;;14.55;5.95;;;;;;;4.78;69.91;101793.31;5092765;28;20056;-70
2021/04/18 04:40:06;;;;;;;15.85;6.75;;;;;;;4.85;70.09;101791.22;5092763;28;20052;-68
2021/04/18 04:42:42;;;;;;;17.42;6.55;;;;;;;4.84;69.88;101789.56;5091672;28;20063;-69
2021/04/18 04:45:11;;;;;;;18.70;6.07;;;;;;;4.92;69.90;101797.31;5090957;28;20044;-70
2021/04/18 04:47:38;;;;;;;19.00;6.53;;;;;;;4.83;70.19;101794.19;5091708;28;20044;-69
2021/04/18 04:50:14;;;;;;;16.90;7.40;;;;;;;4.91;69.98;101799.25;5090946;28;20059;-68
2021/04/18 04:52:41;;;;;;;16.85;6.35;;;;;;;4.91;69.88;101803.88;5091755;28;20051;-71
2021/04/18 04:55:08;;;;;;;21.75;7.10;;;;;;;4.86;69.96;101809.25;5090271;28;20447;-71
2021/04/18 04:57:35;;;;;;;15.38;6.43;;;;;;;4.76;70.75;101809.09;5094422;28;20284;-67
2021/04/18 05:00:06;;;;;;;19.67;6.55;;;;;;;4.77;70.35;101802.56;5069426;28;20059;-72
2021/04/18 05:02:33;;;;;;;20.77;7.03;;;;;;;4.53;71.42;101810.91;5074478;28;20053;-71
2021/04/18 05:05:00;;;;;;;15.18;6.95;;;;;;;4.88;70.45;101815.31;5076235;28;20070;-68
2021/04/18 05:07:27;;;;;;;17.23;7.03;;;;;;;4.81;70.54;101811.91;5076509;28;20057;-70
2021/04/18 05:10:24;;;;;;;22.52;7.43;;;;;;;4.72;70.77;101807.94;5075924;28;20052;-67
2021/04/18 05:12:52;;;;;;;16.63;7.40;;;;;;;4.62;71.46;101816.78;5075398;28;20507;-70
2021/04/18 05:15:22;;;;;;;18.17;7.53;;;;;;;4.68;71.33;101812.22;5074068;28;20048;-69
2021/04/18 05:17:50;;;;;;;21.50;7.78;;;;;;;4.41;72.22;101817.53;5075245;28;20395;-70
2021/04/18 05:20:20;;;;;;;23.60;8.07;;;;;;;4.35;72.96;101816.59;5075162;28;20045;-68
2021/04/18 05:22:47;;;;;;;15.85;8.40;;;;;;;4.51;72.52;101821.25;5072779;28;20495;-69
2021/04/18 05:25:17;;;;;;;18.77;7.55;;;;;;;4.98;71.41;101810.00;5079119;28;20043;-68
2021/04/18 05:27:46;;;;;;;17.25;7.47;;;;;;;5.00;70.42;101816.03;5091867;28;20048;-69
2021/04/18 05:30:35;;;;;;;19.08;7.30;;;;;;;5.16;70.14;101813.25;5106891;28;20056;-70
2021/04/18 05:33:07;;;;;;;16.40;7.35;;;;;;;5.19;70.35;101820.97;5095236;28;20045;-67
2021/04/18 05:35:34;;;;;;;26.92;7.95;;;;;;;5.05;70.74;101821.56;5095566;28;20051;-70
2021/04/18 05:38:01;;;;;;;19.80;7.53;;;;;;;4.89;70.90;101817.78;5096839;28;20068;-70
2021/04/18 05:40:45;;;;;;;17.42;8.25;;;;;;;4.83;71.43;101821.50;5089009;28;20074;-68
2021/04/18 05:43:15;;;;;;;21.65;8.80;;;;;;;4.93;71.50;101827.13;5093581;28;20051;-70
2021/04/18 05:45:45;;;;;;;16.90;8.27;;;;;;;4.88;71.45;101827.03;5109245;28;20048;-70
2021/04/18 05:48:15;;;;;;;23.10;8.27;;;;;;;5.12;70.38;101817.59;5095151;28;20063;-65
2021/04/18 05:50:44;;;;;;;15.23;7.95;;;;;;;5.27;70.29;101820.53;5094652;28;20063;-70
2021/04/18 05:53:11;;;;;;;18.80;8.77;;;;;;;5.35;69.88;101817.38;5095229;28;20143;-66
2021/04/18 05:55:58;;;;;;;21.75;8.52;;;;;;;5.21;70.56;101823.44;5090316;28;20039;-69
2021/04/18 05:58:25;;;;;;;21.75;8.68;;;;;;;4.91;71.85;101826.56;5100175;28;20051;-67
2021/04/18 06:00:53;;;;;;;20.42;9.48;;;;;;;4.78;72.67;101834.25;5093130;28;20499;-70
2021/04/18 06:03:19;;;;;;;22.38;10.15;;;;;;;4.85;73.00;101821.25;5094199;28;20067;-70
2021/04/18 06:05:49;;;;;;;24.98;9.60;;;;;;;5.00;72.09;101821.50;5095618;28;20044;-68
2021/04/18 06:08:16;;;;;;;22.00;9.27;;;;;;;5.27;71.25;101825.16;5095099;28;20372;-68
2021/04/18 06:10:54;;;;;;;21.92;9.73;;;;;;;5.35;71.06;101824.75;5094463;28;20051;-67
2021/04/18 06:13:22;;;;;;;17.92;8.98;;;;;;;5.49;70.56;101826.03;5094262;28;20063;-70
2021/04/18 06:16:07;;;;;;;24.33;10.38;;;;;;;5.38;71.05;101816.88;5093881;28;20060;-69
2021/04/18 06:18:55;;;;;;;22.98;9.63;;;;;;;5.42;70.65;101826.19;5093888;28;20040;-69
2021/04/18 06:21:22;;;;;;;21.95;9.73;;;;;;;5.80;69.62;101827.25;5092939;28;20048;-65
2021/04/18 06:24:07;;;;;;;19.70;9.07;;;;;;;5.65;69.62;101834.16;5094972;28;20468;-70
2021/04/18 06:26:34;;;;;;;18.52;11.00;;;;;;;5.09;71.67;101841.84;5094161;28;20048;-68
2021/04/18 06:29:06;;;;;;;22.63;10.50;;;;;;;5.37;71.45;101844.44;5093072;28;20059;-67
2021/04/18 06:31:44;;;;;;;21.90;11.02;;;;;;;5.50;70.75;101835.88;5093209;28;20411;-70
2021/04/18 06:34:14;;;;;;;23.50;11.10;;;;;;;5.46;71.39;101841.03;5092935;28;20427;-68
2021/04/18 06:36:41;;;;;;;26.77;10.40;;;;;;;5.47;71.38;101842.66;5093004;28;20048;-67
2021/04/18 06:39:07;;;;;;;23.77;11.88;;;;;;;5.32;72.23;101844.34;5093996;28;20158;-66
2021/04/18 06:41:35;;;;;;;24.23;11.98;;;;;;;5.44;71.86;101839.63;5093948;28;20048;-67
2021/04/18 06:44:02;;;;;;;24.08;11.35;;;;;;;5.46;71.60;101849.22;5094203;28;20503;-64
2021/04/18 06:46:30;;;;;;;28.98;11.65;;;;;;;5.41;71.99;101851.03;5094146;28;20183;-66
2021/04/18 06:48:58;;;;;;;25.33;11.80;;;;;;;5.34;72.75;101851.22;5094030;28;20067;-68
2021/04/18 06:51:25;;;;;;;24.08;12.00;;;;;;;5.11;73.21;101850.63;5092602;28;20073;-65
2021/04/18 06:53:52;;;;;;;25.63;13.10;;;;;;;5.00;73.82;101848.78;5093483;28;20051;-65
2021/04/18 06:56:26;;;;;;;30.27;13.45;;;;;;;4.90;74.56;101845.91;5093649;28;20055;-67
2021/04/18 06:59:03;;;;;;;24.27;12.32;;;;;;;4.99;74.62;101847.97;5112480;27;20055;-65
2021/04/18 07:01:40;;;;;;;22.50;12.00;;;;;;;5.18;74.08;101845.78;5082631;28;20404;-65
2021/04/18 07:04:14;;;;;;;25.77;12.55;;;;;;;5.48;73.41;101840.75;5093864;28;20051;-67
2021/04/18 07:06:47;;;;;;;27.33;12.68;;;;;;;5.56;71.81;101845.81;5093507;28;20059;-69
2021/04/18 07:09:22;;;;;;;22.63;11.95;;;;;;;5.61;72.06;101856.81;5093656;28;20071;-66
2021/04/18 07:12:01;;;;;;;26.63;12.18;;;;;;;5.43;72.38;101851.63;5092380;28;20118;-71
2021/04/18 07:14:35;;;;;;;26.08;12.70;;;;;;;5.44;72.79;101848.63;5092009;28;20854;-68
2021/04/18 07:17:13;;;;;;;26.92;12.43;;;;;;;5.88;71.58;101857.72;5092381;28;20059;-65
2021/04/18 07:19:46;;;;;;;25.88;13.38;;;;;;;5.94;70.69;101850.41;5091518;28;20069;-65
2021/04/18 07:22:29;;;;;;;25.55;13.57;;;;;;;6.05;70.82;101844.81;5091384;28;20044;-64
2021/04/18 07:24:59;;;;;;;22.48;13.85;;;;;;;6.39;69.67;101840.81;5092460;28;20090;-68
2021/04/18 07:27:49;;;;;;;28.95;13.65;;;;;;;6.77;68.41;101842.53;5091143;28;20047;-65
2021/04/18 07:30:24;;;;;;;26.35;13.30;;;;;;;6.68;68.89;101844.91;5092250;28;20044;-66
2021/04/18 07:33:05;;;;;;;31.42;13.32;;;;;;;6.76;67.61;101844.44;5092059;28;20048;-68
2021/04/18 07:35:37;;;;;;;27.00;13.65;;;;;;;6.95;66.99;101841.31;5090958;28;20059;-68
2021/04/18 07:38:24;;;;;;;29.40;12.48;;;;;;;6.81;67.43;101841.75;5088678;28;20244;-67
2021/04/18 07:40:57;;;;;;;24.35;13.65;;;;;;;7.05;67.16;101834.00;5097998;27;20048;-63
2021/04/18 07:43:25;;;;;;;21.75;13.18;;;;;;;7.54;65.24;101837.31;5100380;28;20044;-65
2021/04/18 07:45:52;;;;;;;28.80;14.10;;;;;;;6.96;66.81;101838.31;5096413;28;20064;-64
2021/04/18 07:48:19;;;;;;;22.40;13.68;;;;;;;7.24;66.64;101837.13;5091221;28;20044;-65
2021/04/18 07:50:48;;;;;;;31.30;15.73;;;;;;;7.35;66.14;101833.38;5106701;28;20451;-65
2021/04/18 07:53:17;;;;;;;24.35;14.32;;;;;;;7.44;66.23;101824.41;5090355;28;20048;-63
2021/04/18 07:55:47;;;;;;;24.65;14.07;;;;;;;7.68;65.20;101831.09;5090180;28;20044;-66
2021/04/18 07:58:14;;;;;;;25.10;14.27;;;;;;;7.68;65.09;101828.34;5095687;28;20068;-65
2021/04/18 08:00:47;;;;;;;27.98;14.10;;;;;;;7.51;65.38;101824.97;5112623;27;20396;-66
2021/04/18 08:03:15;;;;;;;26.95;14.50;;;;;;;7.39;65.96;101818.84;5090266;28;20403;-67
2021/04/18 08:05:51;;;;;;;27.77;14.60;;;;;;;7.19;66.27;101832.44;5090225;28;20052;-68
2021/04/18 08:08:44;;;;;;;28.65;14.95;;;;;;;7.28;66.56;101817.16;5091384;28;20048;-68
2021/04/18 08:11:13;;;;;;;25.40;14.38;;;;;;;7.31;66.22;101826.75;5091252;28;20404;-66
2021/04/18 08:13:44;;;;;;;26.50;14.80;;;;;;;7.47;66.26;101829.34;5092116;28;20050;-66
2021/04/18 08:16:11;;;;;;;29.08;14.60;;;;;;;7.38;65.86;101817.22;5091732;28;20047;-64
2021/04/18 08:18:43;;;;;;;27.13;14.38;;;;;;;7.29;66.58;101820.72;5091475;28;20051;-63
2021/04/18 08:21:38;;;;;;;29.20;14.95;;;;;;;7.25;66.70;101822.34;5089008;28;20418;-64
2021/04/18 08:24:17;;;;;;;25.70;14.68;;;;;;;7.19;67.42;101832.44;5091237;28;20055;-65
2021/04/18 08:26:56;;;;;;;23.58;14.60;;;;;;;7.10;67.61;101823.06;5090866;28;20040;-66
2021/04/18 08:29:23;;;;;;;26.50;15.07;;;;;;;7.32;67.04;101826.50;5089124;28;20059;-65
2021/04/18 08:31:51;;;;;;;27.30;14.45;;;;;;;7.74;65.98;101818.25;5090170;28;20048;-65
2021/04/18 08:34:19;;;;;;;29.30;14.52;;;;;;;8.07;64.88;101825.22;5089973;28;20048;-67
2021/04/18 08:37:05;;;;;;;24.95;13.95;;;;;;;7.92;64.05;101823.22;5092735;28;20052;-67
2021/04/18 08:39:40;;;;;;;24.45;14.23;;;;;;;7.81;64.99;101829.78;5093428;28;20130;-67
2021/04/18 08:42:09;;;;;;;24.02;13.75;;;;;;;7.74;65.36;101827.25;5103419;28;20047;-70
2021/04/18 08:44:39;;;;;;;27.33;13.52;;;;;;;8.19;64.39;101823.03;5108898;28;20391;-69
2021/04/18 08:47:09;;;;;;;29.88;14.63;;;;;;;8.10;64.62;101816.44;5122848;28;20408;-71
2021/04/18 08:49:45;;;;;;;25.48;14.50;;;;;;;8.12;63.98;101823.31;5123882;27;20044;-69
2021/04/18 08:52:28;;;;;;;26.98;14.57;;;;;;;8.05;64.28;101814.50;5090903;28;20055;-68
2021/04/18 08:54:58;;;;;;;30.75;15.23;;;;;;;8.22;64.08;101819.75;5077274;28;20059;-67
2021/04/18 08:57:27;;;;;;;29.90;15.35;;;;;;;8.30;63.33;101819.28;5075732;28;20056;-72
2021/04/18 09:00:03;;;;;;;27.92;15.32;;;;;;;8.66;62.77;101816.28;5092342;28;20403;-66
2021/04/18 09:02:30;;;;;;;24.80;15.07;;;;;;;8.53;62.88;101826.97;5090868;28;20052;-64
2021/04/18 09:04:59;;;;;;;27.48;14.35;;;;;;;8.45;63.34;101819.28;5087868;28;20151;-67
2021/04/18 09:07:29;;;;;;;25.10;14.10;;;;;;;8.60;63.58;101820.13;5088505;28;20055;-64
2021/04/18 09:10:07;;;;;;;27.08;14.65;;;;;;;8.87;62.36;101820.66;5087511;28;20062;-71
2021/04/18 09:12:37;;;;;;;27.60;14.15;;;;;;;8.93;62.00;101819.56;5048731;28;20056;-71
2021/04/18 09:15:06;;;;;;;21.70;13.85;;;;;;;9.27;60.94;101819.00;5086365;28;20047;-66
2021/04/18 09:17:34;;;;;;;24.85;14.90;;;;;;;9.24;60.47;101819.56;5083215;28;20043;-69
2021/04/18 09:20:11;;;;;;;27.50;13.88;;;;;;;9.40;60.19;101815.66;5087973;28;20407;-71
2021/04/18 09:22:40;;;;;;;27.13;13.68;;;;;;;9.32;60.78;101807.97;5068932;28;20047;-70
2021/04/18 09:25:08;;;;;;;22.73;13.82;;;;;;;9.64;59.42;101816.69;5086431;28;20044;-69
2021/04/18 09:27:42;;;;;;;24.42;14.55;;;;;;;9.70;59.13;101810.06;5086778;28;20044;-68
2021/04/18 09:30:12;;;;;;;23.90;14.20;;;;;;;9.22;59.86;101813.50;5085461;28;20044;-72
2021/04/18 09:32:40;;;;;;;26.65;13.93;;;;;;;9.32;59.90;101807.97;5089043;28;20058;-70
2021/04/18 09:35:21;;;;;;;23.90;14.02;;;;;;;9.35;59.98;101813.75;5085594;28;20048;-68
2021/04/18 09:37:59;;;;;;;24.80;13.63;;;;;;;9.54;59.42;101805.72;5080702;28;20056;-69
2021/04/18 09:40:30;;;;;;;34.92;18.70;;;;;;;10.04;58.27;101808.25;5083706;28;20063;-68
2021/04/18 09:43:23;;;;;;;28.20;13.77;;;;;;;9.92;57.46;101805.03;5086465;28;20119;-67
2021/04/18 09:45:59;;;;;;;21.88;13.63;;;;;;;9.91;57.09;101806.13;5088607;28;20383;-71
2021/04/18 09:48:30;;;;;;;26.33;13.10;;;;;;;10.36;56.02;101797.63;5090795;28;20052;-65
2021/04/18 09:51:09;;;;;;;24.13;13.65;;;;;;;10.50;55.13;101798.63;5073588;28;20044;-68
2021/04/18 09:53:36;;;;;;;25.73;13.15;;;;;;;10.41;56.57;101794.03;5080717;28;20048;-72
2021/04/18 09:56:08;;;;;;;28.38;13.45;;;;;;;10.35;55.48;101787.72;5088350;28;20499;-67
2021/04/18 09:58:42;;;;;;;;;;;;;;;10.28;55.48;101791.91;5093178;28;20047;-66
2021/04/18 10:01:28;;;;;;;26.80;15.32;;;;;;;10.03;56.02;101792.84;5089102;28;19935;-70
2021/04/18 10:03:56;;;;;;;27.15;14.88;;;;;;;9.90;56.44;101793.47;5089150;28;20052;-68
2021/04/18 10:06:24;;;;;;;27.00;14.90;;;;;;;9.96;56.37;101789.56;5083458;28;20052;-71
2021/04/18 10:08:53;;;;;;;21.23;12.93;;;;;;;10.30;55.44;101787.78;5094042;28;20123;-69
2021/04/18 10:11:21;;;;;;;24.73;12.27;;;;;;;10.61;53.60;101791.94;5088987;28;20052;-73
2021/04/18 10:13:54;;;;;;;20.53;11.83;;;;;;;10.84;52.71;101780.19;5092018;28;20058;-69
2021/04/18 10:16:42;;;;;;;22.42;11.77;;;;;;;10.53;53.65;101780.72;5087140;28;20048;-67
2021/04/18 10:19:28;;;;;;;21.10;13.30;;;;;;;10.60;53.96;101787.53;5088327;28;20479;-64
2021/04/18 10:22:15;;;;;;;24.40;12.60;;;;;;;11.00;53.16;101781.66;5095914;28;20384;-66
2021/04/18 10:24:50;;;;;;;25.65;13.02;;;;;;;11.22;52.51;101762.72;5101816;28;20047;-65
2021/04/18 10:27:32;;;;;;;20.60;12.02;;;;;;;11.22;52.16;101768.22;5100694;28;20040;-70
2021/04/18 10:30:04;;;;;;;20.48;12.27;;;;;;;11.13;50.79;101764.44;5090324;28;20059;-70
2021/04/18 10:32:32;;;;;;;19.08;12.23;;;;;;;11.09;51.34;101779.09;5093902;28;20055;-71
2021/04/18 10:35:07;;;;;;;21.73;11.90;;;;;;;11.45;50.34;101760.25;5082946;28;20036;-69
2021/04/18 10:37:34;;;;;;;21.13;12.60;;;;;;;11.23;51.04;101769.84;5095025;28;20051;-69
2021/04/18 10:40:02;;;;;;;27.85;12.80;;;;;;;11.37;51.18;101764.44;5090438;28;20051;-67
2021/04/18 10:42:29;;;;;;;23.77;12.38;;;;;;;11.04;52.00;101763.44;5098654;28;20059;-69
2021/04/18 10:44:56;;;;;;;23.45;12.10;;;;;;;11.35;51.18;101758.41;5103974;28;20044;-66
2021/04/18 10:47:23;;;;;;;20.05;11.23;;;;;;;11.46;50.03;101759.94;5090216;28;20138;-69
2021/04/18 10:49:50;;;;;;;18.35;11.85;;;;;;;11.27;50.21;101767.34;5075371;28;20044;-65
2021/04/18 10:52:18;;;;;;;19.38;11.20;;;;;;;11.40;49.94;101758.38;5086690;28;20055;-69
2021/04/18 10:54:45;;;;;;;18.58;11.93;;;;;;;11.61;48.64;101761.69;5089361;28;20043;-68
2021/04/18 10:57:33;;;;;;;22.15;12.07;;;;;;;11.66;49.70;101754.22;5093152;28;20044;-68
2021/04/18 11:00:04;;;;;;;20.23;12.23;;;;;;;11.91;49.34;101745.59;5091837;27;20040;-63
2021/04/18 11:02:34;;;;;;;18.90;11.20;;;;;;;12.17;49.14;101740.50;5090136;28;20039;-63
2021/04/18 11:05:11;;;;;;;20.65;11.48;;;;;;;12.56;47.94;101746.53;5092205;28;20051;-65
2021/04/18 11:07:44;;;;;;;20.20;12.13;;;;;;;11.79;48.92;101730.56;5089473;28;20044;-67
2021/04/18 11:10:13;;;;;;;18.38;12.32;;;;;;;11.47;50.07;101752.50;5085346;28;20044;-68
2021/04/18 11:12:43;;;;;;;;;;;;;;;11.47;50.22;101731.25;5069723;28;20056;-71
2021/04/18 11:15:11;;;;;;;18.13;11.80;;;;;;;11.68;49.82;101734.59;5088901;27;19928;-65
2021/04/18 11:17:40;;;;;;;24.73;12.63;;;;;;;11.86;49.36;101737.38;5087247;28;20047;-65
2021/04/18 11:20:13;;;;;;;21.10;11.75;;;;;;;12.22;48.02;101732.97;5089968;28;20055;-65
2021/04/18 11:22:43;;;;;;;22.65;11.55;;;;;;;12.30;47.46;101728.72;5098161;28;20054;-67
2021/04/18 11:25:12;;;;;;;21.02;11.93;;;;;;;12.50;47.16;101727.56;5092794;27;20146;-65
2021/04/18 11:27:48;;;;;;;23.08;11.60;;;;;;;12.81;46.87;101723.16;5093887;28;20046;-71
2021/04/18 11:30:16;;;;;;;19.08;11.02;;;;;;;12.61;47.12;101721.56;5093831;28;20513;-70
2021/04/18 11:32:52;;;;;;;23.33;11.88;;;;;;;12.38;46.81;101725.25;5089709;28;20048;-68
2021/04/18 11:35:42;;;;;;;20.00;11.98;;;;;;;12.48;47.09;101719.59;5080383;28;20059;-69
2021/04/18 11:38:18;;;;;;;16.35;10.70;;;;;;;12.56;46.81;101718.06;5096765;28;20055;-67
2021/04/18 11:40:48;;;;;;;22.10;11.50;;;;;;;12.65;46.32;101700.50;5085210;28;20050;-71
2021/04/18 11:43:15;;;;;;;21.88;11.57;;;;;;;12.19;47.40;101713.41;5089114;28;20475;-67
2021/04/18 11:45:42;;;;;;;19.80;11.32;;;;;;;12.48;46.61;101706.56;5090342;28;20040;-67